createdAt,value
2019-02-27T00:01:16.727Z,103033.81
2019-02-27T00:03:45.340Z,103030.52
2019-02-27T00:06:15.850Z,103031.36
2019-02-27T00:08:45.616Z,103031.73
2019-02-27T00:11:15.120Z,103033.81
2019-02-27T00:13:44.623Z,103024.38
2019-02-27T00:16:14.180Z,103020.58
2019-02-27T00:18:44.062Z,103019.05
2019-02-27T00:21:13.463Z,103014.47
2019-02-27T00:23:42.883Z,103018.00
2019-02-27T00:26:12.323Z,103017.27
2019-02-27T00:28:41.757Z,103011.80
2019-02-27T00:31:12.029Z,103015.67
2019-02-27T00:33:41.572Z,103009.16
2019-02-27T00:36:12.309Z,103005.45
2019-02-27T00:38:42.403Z,103008.81
2019-02-27T00:41:12.976Z,103009.25
2019-02-27T00:43:42.973Z,103011.69
2019-02-27T00:46:13.230Z,103008.59
2019-02-27T00:48:43.531Z,103009.14
2019-02-27T00:51:13.002Z,102999.50
2019-02-27T00:53:42.521Z,102995.11
2019-02-27T00:56:12.744Z,102993.81
2019-02-27T00:58:42.607Z,102989.58
2019-02-27T01:01:12.617Z,102985.72
2019-02-27T01:03:42.936Z,102984.59
2019-02-27T01:06:14.673Z,102979.58
2019-02-27T01:08:44.120Z,102979.81
2019-02-27T01:11:18.217Z,102975.17
2019-02-27T01:13:44.865Z,102977.90
2019-02-27T01:16:17.010Z,102973.98
2019-02-27T01:18:45.513Z,102967.88
2019-02-27T01:21:19.215Z,102971.35
2019-02-27T01:23:46.095Z,102962.80
2019-02-27T01:26:15.523Z,102965.56
2019-02-27T01:28:45.587Z,102970.78
2019-02-27T01:31:15.169Z,102966.59
2019-02-27T01:33:44.976Z,102964.52
2019-02-27T01:36:14.428Z,102967.90
2019-02-27T01:38:43.841Z,102970.86
2019-02-27T01:41:13.581Z,102969.69
2019-02-27T01:43:43.103Z,102964.38
2019-02-27T01:46:12.538Z,102961.78
2019-02-27T01:48:43.720Z,102959.23
2019-02-27T01:51:13.126Z,102957.56
2019-02-27T01:53:42.554Z,102954.30
2019-02-27T01:56:12.000Z,102948.69
2019-02-27T01:58:44.121Z,102954.15
2019-02-27T02:01:12.649Z,102946.84
2019-02-27T02:03:42.163Z,102951.38
2019-02-27T02:06:11.644Z,102942.32
2019-02-27T02:08:41.064Z,102940.30
2019-02-27T02:11:10.636Z,102937.67
2019-02-27T02:13:50.538Z,102936.92
2019-02-27T02:16:27.219Z,102936.16
2019-02-27T02:19:35.189Z,102939.38
2019-02-27T02:22:33.963Z,102939.89
2019-02-27T02:25:16.745Z,102932.34
2019-02-27T02:28:09.055Z,102928.30
2019-02-27T02:31:05.354Z,102929.43
2019-02-27T02:34:05.519Z,102925.89
2019-02-27T02:37:01.411Z,102920.49
2019-02-27T02:39:54.297Z,102914.91
2019-02-27T02:42:42.954Z,102903.25
2019-02-27T02:45:19.766Z,102895.89
2019-02-27T02:48:05.679Z,102894.05
2019-02-27T02:51:10.386Z,102889.92
2019-02-27T02:54:00.400Z,102888.86
2019-02-27T02:56:43.621Z,102880.59
2019-02-27T02:59:46.459Z,102880.16
2019-02-27T03:02:29.855Z,102877.75
2019-02-27T03:05:16.016Z,102878.19
2019-02-27T03:08:01.862Z,102872.34
2019-02-27T03:10:45.090Z,102874.24
2019-02-27T03:13:41.959Z,102873.47
2019-02-27T03:16:14.877Z,102873.61
2019-02-27T03:19:06.228Z,102872.81
2019-02-27T03:21:45.588Z,102868.05
2019-02-27T03:24:28.213Z,102866.79
2019-02-27T03:27:13.228Z,102865.87
2019-02-27T03:30:36.355Z,102869.52
2019-02-27T03:33:08.387Z,102864.77
2019-02-27T03:36:04.868Z,102868.32
2019-02-27T03:38:55.874Z,102858.64
2019-02-27T03:41:47.488Z,102847.86
2019-02-27T03:44:30.375Z,102850.08
2019-02-27T03:47:24.879Z,102843.87
2019-02-27T03:50:19.854Z,102844.11
2019-02-27T03:53:11.848Z,102835.02
2019-02-27T03:55:52.405Z,102841.80
2019-02-27T03:58:42.051Z,102830.75
2019-02-27T04:01:31.439Z,102822.59
2019-02-27T04:04:43.474Z,102814.99
2019-02-27T04:07:56.790Z,102807.83
2019-02-27T04:10:30.827Z,102804.55
2019-02-27T04:12:57.402Z,102800.48
2019-02-27T04:15:26.907Z,102795.80
2019-02-27T04:17:55.173Z,102793.83
2019-02-27T04:20:24.911Z,102789.78
2019-02-27T04:22:54.413Z,102787.25
2019-02-27T04:25:23.838Z,102792.73
2019-02-27T04:27:55.619Z,102792.76
2019-02-27T04:30:24.661Z,102796.25
2019-02-27T04:32:54.090Z,102795.70
2019-02-27T04:35:23.928Z,102802.03
2019-02-27T04:37:54.389Z,102801.74
2019-02-27T04:40:24.294Z,102793.84
2019-02-27T04:42:53.708Z,102789.70
2019-02-27T04:45:23.163Z,102789.30
2019-02-27T04:47:52.575Z,102796.96
2019-02-27T04:50:22.027Z,102794.31
2019-02-27T04:52:51.443Z,102789.55
2019-02-27T04:55:20.937Z,102793.61
2019-02-27T04:57:50.379Z,102794.89
2019-02-27T05:00:19.805Z,102799.58
2019-02-27T05:02:50.466Z,102795.50
2019-02-27T05:05:20.407Z,102797.16
2019-02-27T05:07:54.142Z,102792.05
2019-02-27T05:10:20.982Z,102783.30
2019-02-27T05:12:50.418Z,102783.91
2019-02-27T05:15:19.967Z,102787.37
2019-02-27T05:17:49.405Z,102790.67
2019-02-27T05:20:18.829Z,102799.07
2019-02-27T05:22:48.545Z,102791.22
2019-02-27T05:25:17.974Z,102794.34
2019-02-27T05:27:47.706Z,102787.71
2019-02-27T05:30:17.276Z,102790.13
2019-02-27T05:32:46.970Z,102785.69
2019-02-27T05:35:16.409Z,102782.63
2019-02-27T05:37:45.836Z,102784.72
2019-02-27T05:40:15.465Z,102780.15
2019-02-27T05:42:44.885Z,102782.45
2019-02-27T05:45:14.474Z,102776.13
2019-02-27T05:47:45.675Z,102770.26
2019-02-27T05:50:15.267Z,102770.63
2019-02-27T05:52:48.373Z,102770.63
2019-02-27T05:55:16.136Z,102779.39
2019-02-27T05:57:45.607Z,102780.28
2019-02-27T06:00:20.602Z,102782.66
2019-02-27T06:02:50.076Z,102776.06
2019-02-27T06:05:19.544Z,102779.17
2019-02-27T06:07:49.035Z,102772.20
2019-02-27T06:10:20.130Z,102782.52
2019-02-27T06:12:50.198Z,102781.27
2019-02-27T06:15:20.073Z,102776.08
2019-02-27T06:17:49.851Z,102777.69
2019-02-27T06:20:19.460Z,102777.87
2019-02-27T06:22:48.971Z,102781.34
2019-02-27T06:25:23.470Z,102781.12
2019-02-27T06:27:50.849Z,102771.69
2019-02-27T06:30:21.735Z,102774.25
2019-02-27T06:32:51.586Z,102767.23
2019-02-27T06:35:21.099Z,102764.19
2019-02-27T06:37:51.376Z,102772.58
2019-02-27T06:40:21.070Z,102779.24
2019-02-27T06:42:53.654Z,102782.69
2019-02-27T06:45:21.658Z,102773.84
2019-02-27T06:47:51.163Z,102775.92
2019-02-27T06:50:25.209Z,102771.80
2019-02-27T06:52:52.216Z,102770.55
2019-02-27T06:55:21.640Z,102763.95
2019-02-27T06:57:51.087Z,102770.44
2019-02-27T07:00:25.317Z,102773.21
2019-02-27T07:02:55.491Z,102758.44
2019-02-27T07:05:25.663Z,102770.83
2019-02-27T07:07:55.063Z,102775.04
2019-02-27T07:10:24.572Z,102777.59
2019-02-27T07:12:54.721Z,102776.68
2019-02-27T07:15:24.881Z,102770.70
2019-02-27T07:17:54.294Z,102768.05
2019-02-27T07:20:24.553Z,102774.05
2019-02-27T07:22:54.727Z,102773.61
2019-02-27T07:25:24.166Z,102777.64
2019-02-27T07:27:53.583Z,102772.73
2019-02-27T07:30:23.915Z,102770.38
2019-02-27T07:32:53.554Z,102767.53
2019-02-27T07:35:26.360Z,102769.81
2019-02-27T07:37:55.450Z,102767.38
2019-02-27T07:40:25.220Z,102762.09
2019-02-27T07:42:54.670Z,102766.09
2019-02-27T07:45:24.651Z,102761.46
2019-02-27T07:47:54.084Z,102762.69
2019-02-27T07:50:23.590Z,102770.41
2019-02-27T07:52:53.013Z,102777.22
2019-02-27T07:55:23.400Z,102766.59
2019-02-27T07:57:58.487Z,102771.77
2019-02-27T08:00:26.368Z,102769.56
2019-02-27T08:02:56.086Z,102776.05
2019-02-27T08:05:29.039Z,102772.66
2019-02-27T08:07:57.489Z,102774.61
2019-02-27T08:10:27.487Z,102771.58
2019-02-27T08:12:56.997Z,102757.33
2019-02-27T08:15:26.488Z,102754.41
2019-02-27T08:17:58.011Z,102750.07
2019-02-27T08:20:27.156Z,102757.33
2019-02-27T08:22:57.749Z,102755.55
2019-02-27T08:25:27.466Z,102752.12
2019-02-27T08:27:56.889Z,102750.88
2019-02-27T08:30:28.592Z,102752.69
2019-02-27T08:32:58.091Z,102754.45
2019-02-27T08:35:27.544Z,102746.93
2019-02-27T08:38:02.675Z,102747.74
2019-02-27T08:40:28.209Z,102741.98
2019-02-27T08:42:57.926Z,102746.23
2019-02-27T08:45:27.765Z,102742.87
2019-02-27T08:47:57.379Z,102745.09
2019-02-27T08:50:29.218Z,102736.94
2019-02-27T08:52:58.053Z,102730.29
2019-02-27T08:55:27.561Z,102724.80
2019-02-27T08:57:57.201Z,102710.58
2019-02-27T09:00:32.856Z,102707.30
2019-02-27T09:03:03.591Z,102709.95
2019-02-27T09:05:33.243Z,102704.16
2019-02-27T09:08:02.671Z,102693.36
2019-02-27T09:10:32.479Z,102701.75
2019-02-27T09:13:05.352Z,102700.23
2019-02-27T09:15:33.087Z,102706.68
2019-02-27T09:18:02.549Z,102704.58
2019-02-27T09:20:32.429Z,102697.49
2019-02-27T09:23:01.856Z,102695.77
2019-02-27T09:25:31.339Z,102694.99
2019-02-27T09:28:01.167Z,102688.19
2019-02-27T09:30:30.870Z,102685.72
2019-02-27T09:33:00.306Z,102691.11
2019-02-27T09:35:32.549Z,102683.16
2019-02-27T09:38:01.602Z,102680.01
2019-02-27T09:40:31.165Z,102679.83
2019-02-27T09:43:00.606Z,102676.95
2019-02-27T09:45:37.588Z,102679.55
2019-02-27T09:48:07.181Z,102689.20
2019-02-27T09:50:48.344Z,102685.36
2019-02-27T09:53:17.114Z,102681.34
2019-02-27T09:55:46.562Z,102670.41
2019-02-27T09:58:15.970Z,102669.47
2019-02-27T10:01:03.112Z,102663.67
2019-02-27T10:03:32.987Z,102654.60
2019-02-27T10:06:02.504Z,102656.00
2019-02-27T10:08:31.998Z,102649.88
2019-02-27T10:11:01.444Z,102640.97
2019-02-27T10:13:30.895Z,102640.20
2019-02-27T10:16:01.355Z,102638.97
2019-02-27T10:18:31.196Z,102648.87
2019-02-27T10:21:00.755Z,102647.52
2019-02-27T10:23:31.261Z,102646.95
2019-02-27T10:26:00.966Z,102646.30
2019-02-27T10:28:32.415Z,102645.63
2019-02-27T10:31:01.888Z,102637.55
2019-02-27T10:33:31.318Z,102639.25
2019-02-27T10:36:03.559Z,102633.82
2019-02-27T10:38:31.924Z,102637.41
2019-02-27T10:41:01.440Z,102639.20
2019-02-27T10:43:30.963Z,102633.55
2019-02-27T10:46:00.402Z,102624.06
2019-02-27T10:48:29.833Z,102625.37
2019-02-27T10:50:59.291Z,102629.58
2019-02-27T10:53:28.749Z,102629.31
2019-02-27T10:55:58.270Z,102627.38
2019-02-27T10:58:27.704Z,102622.02
2019-02-27T11:00:58.053Z,102613.95
2019-02-27T11:03:28.370Z,102615.84
2019-02-27T11:05:57.936Z,102615.75
2019-02-27T11:08:29.579Z,102618.03
2019-02-27T11:10:59.025Z,102609.45
2019-02-27T11:13:28.523Z,102606.98
2019-02-27T11:15:57.988Z,102598.38
2019-02-27T11:18:27.433Z,102592.67
2019-02-27T11:20:59.131Z,102582.59
2019-02-27T11:23:28.207Z,102586.41
2019-02-27T11:25:57.704Z,102572.53
2019-02-27T11:28:27.216Z,102578.66
2019-02-27T11:30:56.714Z,102570.72
2019-02-27T11:33:26.258Z,102567.61
2019-02-27T11:35:55.746Z,102563.80
2019-02-27T11:38:25.505Z,102564.21
2019-02-27T11:40:55.019Z,102561.30
2019-02-27T11:43:24.555Z,102559.63
2019-02-27T11:45:57.803Z,102551.25
2019-02-27T11:48:25.173Z,102546.22
2019-02-27T11:50:54.677Z,102545.84
2019-02-27T11:53:24.074Z,102549.02
2019-02-27T11:55:53.497Z,102539.35
2019-02-27T11:58:23.022Z,102533.88
2019-02-27T12:00:52.509Z,102541.73
2019-02-27T12:03:22.108Z,102526.38
2019-02-27T12:05:51.609Z,102537.12
2019-02-27T12:08:22.392Z,102519.22
2019-02-27T12:10:52.285Z,102514.02
2019-02-27T12:13:21.855Z,102506.45
2019-02-27T12:15:51.291Z,102500.86
2019-02-27T12:18:20.888Z,102502.30
2019-02-27T12:20:53.190Z,102502.69
2019-02-27T12:23:22.031Z,102496.70
2019-02-27T12:25:51.464Z,102494.42
2019-02-27T12:28:21.073Z,102490.20
2019-02-27T12:30:50.499Z,102488.42
2019-02-27T12:33:20.042Z,102487.05
2019-02-27T12:35:49.632Z,102483.48
2019-02-27T12:38:19.049Z,102482.19
2019-02-27T12:40:48.583Z,102478.08
2019-02-27T12:43:18.523Z,102480.27
2019-02-27T12:45:48.324Z,102475.03
2019-02-27T12:48:17.783Z,102472.05
2019-02-27T12:50:47.309Z,102472.75
2019-02-27T12:53:20.722Z,102473.41
2019-02-27T12:55:47.982Z,102464.64
2019-02-27T12:58:17.420Z,102457.06
2019-02-27T13:00:46.943Z,102451.75
2019-02-27T13:03:16.447Z,102451.84
2019-02-27T13:05:45.905Z,102450.72
2019-02-27T13:08:16.309Z,102451.68
2019-02-27T13:10:48.559Z,102443.08
2019-02-27T13:13:17.789Z,102441.09
2019-02-27T13:15:47.248Z,102437.41
2019-02-27T13:18:16.670Z,102436.45
2019-02-27T13:20:46.328Z,102435.30
2019-02-27T13:23:17.363Z,102433.51
2019-02-27T13:25:46.782Z,102438.19
2019-02-27T13:28:17.951Z,102435.39
2019-02-27T13:30:47.374Z,102429.27
2019-02-27T13:33:16.912Z,102420.37
2019-02-27T13:35:46.400Z,102420.31
2019-02-27T13:38:18.382Z,102417.44
2019-02-27T13:40:47.168Z,102405.59
2019-02-27T13:43:16.603Z,102406.72
2019-02-27T13:45:47.528Z,102404.86
2019-02-27T13:48:17.279Z,102411.87
2019-02-27T13:50:47.188Z,102409.27
2019-02-27T13:53:16.625Z,102413.98
2019-02-27T13:55:48.308Z,102413.03
2019-02-27T13:58:17.293Z,102401.50
2019-02-27T14:00:46.802Z,102407.25
2019-02-27T14:03:16.236Z,102394.45
2019-02-27T14:05:45.670Z,102387.62
2019-02-27T14:08:15.202Z,102385.14
2019-02-27T14:10:46.919Z,102374.62
2019-02-27T14:13:16.500Z,102373.81
2019-02-27T14:15:45.967Z,102367.58
2019-02-27T14:18:16.795Z,102368.41
2019-02-27T14:20:46.360Z,102361.89
2019-02-27T14:23:15.805Z,102358.38
2019-02-27T14:25:45.239Z,102351.81
2019-02-27T14:28:14.682Z,102351.22
2019-02-27T14:30:52.490Z,102350.55
2019-02-27T14:33:24.828Z,102352.66
2019-02-27T14:35:54.268Z,102349.08
2019-02-27T14:38:23.713Z,102348.42
2019-02-27T14:40:55.565Z,102343.19
2019-02-27T14:43:27.364Z,102335.83
2019-02-27T14:45:56.531Z,102338.32
2019-02-27T14:48:25.979Z,102332.64
2019-02-27T14:50:55.799Z,102327.03
2019-02-27T14:53:25.255Z,102328.23
2019-02-27T14:55:54.756Z,102320.64
2019-02-27T14:58:24.986Z,102322.42
2019-02-27T15:00:54.654Z,102314.48
2019-02-27T15:03:28.890Z,102316.52
2019-02-27T15:05:55.279Z,102315.59
2019-02-27T15:08:25.279Z,102311.63
2019-02-27T15:10:55.811Z,102314.97
2019-02-27T15:13:28.130Z,102305.13
2019-02-27T15:15:56.487Z,102305.45
2019-02-27T15:18:25.951Z,102294.89
2019-02-27T15:20:55.398Z,102294.19
2019-02-27T15:23:27.524Z,102289.55
2019-02-27T15:25:56.008Z,102285.54
2019-02-27T15:28:25.448Z,102278.22
2019-02-27T15:30:54.889Z,102276.30
2019-02-27T15:33:24.462Z,102276.31
2019-02-27T15:35:55.461Z,102266.63
2019-02-27T15:38:25.170Z,102261.84
2019-02-27T15:40:54.779Z,102257.66
2019-02-27T15:43:24.211Z,102250.03
2019-02-27T15:45:53.637Z,102248.70
2019-02-27T15:48:23.081Z,102244.75
2019-02-27T15:50:56.594Z,102236.61
2019-02-27T15:53:23.682Z,102231.12
2019-02-27T15:55:53.173Z,102238.65
2019-02-27T15:58:25.332Z,102236.92
2019-02-27T16:00:53.857Z,102230.10
2019-02-27T16:03:23.283Z,102226.74
2019-02-27T16:05:52.898Z,102231.03
2019-02-27T16:08:23.378Z,102229.38
2019-02-27T16:10:55.167Z,102226.69
2019-02-27T16:13:24.609Z,102228.33
2019-02-27T16:15:54.044Z,102223.84
2019-02-27T16:18:23.483Z,102221.19
2019-02-27T16:20:52.997Z,102219.66
2019-02-27T16:23:22.419Z,102216.28
2019-02-27T16:25:53.723Z,102216.78
2019-02-27T16:28:23.110Z,102215.04
2019-02-27T16:30:52.688Z,102208.88
2019-02-27T16:33:24.009Z,102211.70
2019-02-27T16:35:53.368Z,102215.69
2019-02-27T16:38:22.799Z,102211.89
2019-02-27T16:40:53.460Z,102218.16
2019-02-27T16:43:23.101Z,102216.12
2019-02-27T16:45:52.534Z,102219.17
2019-02-27T16:48:22.004Z,102213.09
2019-02-27T16:50:51.503Z,102209.07
2019-02-27T16:53:21.452Z,102209.69
2019-02-27T16:55:50.898Z,102208.48
2019-02-27T16:58:20.344Z,102209.34
2019-02-27T17:00:54.198Z,102204.02
2019-02-27T17:03:21.037Z,102202.05
2019-02-27T17:05:50.927Z,102207.08
2019-02-27T17:08:20.365Z,102207.08
2019-02-27T17:10:51.927Z,102198.25
2019-02-27T17:13:20.980Z,102192.53
2019-02-27T17:15:50.477Z,102195.10
2019-02-27T17:18:19.926Z,102199.55
2019-02-27T17:20:49.357Z,102192.94
2019-02-27T17:23:18.801Z,102192.39
2019-02-27T17:25:48.373Z,102191.61
2019-02-27T17:28:17.811Z,102186.96
2019-02-27T17:30:47.551Z,102185.45
2019-02-27T17:33:16.980Z,102185.58
2019-02-27T17:35:46.520Z,102180.38
2019-02-27T17:38:15.956Z,102184.66
2019-02-27T17:40:45.395Z,102193.34
2019-02-27T17:43:14.843Z,102193.41
2019-02-27T17:45:46.948Z,102186.13
2019-02-27T17:48:15.639Z,102191.84
2019-02-27T17:50:45.102Z,102185.84
2019-02-27T17:53:14.516Z,102184.08
2019-02-27T17:55:43.961Z,102181.65
2019-02-27T17:58:13.460Z,102175.93
2019-02-27T18:00:51.052Z,102177.48
2019-02-27T18:03:18.842Z,102185.28
2019-02-27T18:05:48.295Z,102182.00
2019-02-27T18:08:17.819Z,102185.38
2019-02-27T18:10:47.403Z,102187.64
2019-02-27T18:13:16.856Z,102184.86
2019-02-27T18:15:46.320Z,102192.12
2019-02-27T18:18:15.856Z,102192.91
2019-02-27T18:20:45.294Z,102190.27
2019-02-27T18:23:14.726Z,102191.56
2019-02-27T18:25:44.261Z,102189.98
2019-02-27T18:28:13.732Z,102187.36
2019-02-27T18:30:43.293Z,102186.41
2019-02-27T18:33:14.370Z,102189.77
2019-02-27T18:35:44.024Z,102191.20
2019-02-27T18:38:13.541Z,102189.89
2019-02-27T18:40:43.676Z,102181.66
2019-02-27T18:43:13.543Z,102183.64
2019-02-27T18:45:43.044Z,102174.81
2019-02-27T18:48:12.540Z,102178.52
2019-02-27T18:50:42.336Z,102181.89
2019-02-27T18:53:13.361Z,102183.90
2019-02-27T18:55:44.068Z,102176.44
2019-02-27T18:58:13.691Z,102182.86
2019-02-27T19:00:43.190Z,102182.84
2019-02-27T19:03:13.369Z,102187.66
2019-02-27T19:05:42.871Z,102179.72
2019-02-27T19:08:12.581Z,102184.06
2019-02-27T19:10:42.786Z,102182.92
2019-02-27T19:13:12.464Z,102180.98
2019-02-27T19:15:45.481Z,102180.64
2019-02-27T19:18:13.687Z,102192.66
2019-02-27T19:20:46.463Z,102183.91
2019-02-27T19:23:17.719Z,102182.67
2019-02-27T19:25:47.529Z,102183.36
2019-02-27T19:28:17.123Z,102175.88
2019-02-27T19:30:46.697Z,102173.11
2019-02-27T19:33:16.311Z,102179.49
2019-02-27T19:35:45.899Z,102176.11
2019-02-27T19:38:15.475Z,102174.06
2019-02-27T19:40:44.983Z,102174.95
2019-02-27T19:43:14.531Z,102173.22
2019-02-27T19:45:44.227Z,102166.44
2019-02-27T19:48:14.063Z,102169.56
2019-02-27T19:50:46.202Z,102164.84
2019-02-27T19:53:15.296Z,102174.80
2019-02-27T19:55:44.818Z,102171.56
2019-02-27T19:58:17.130Z,102167.89
2019-02-27T20:00:48.546Z,102164.83
2019-02-27T20:03:17.205Z,102168.36
2019-02-27T20:05:46.709Z,102163.66
2019-02-27T20:08:16.270Z,102162.66
2019-02-27T20:10:45.918Z,102162.45
2019-02-27T20:13:15.778Z,102166.24
2019-02-27T20:15:46.414Z,102161.01
2019-02-27T20:18:16.233Z,102162.56
2019-02-27T20:20:45.892Z,102161.89
2019-02-27T20:23:15.515Z,102157.52
2019-02-27T20:25:45.029Z,102159.73
2019-02-27T20:28:14.539Z,102159.13
2019-02-27T20:30:45.109Z,102157.45
2019-02-27T20:33:14.737Z,102154.19
2019-02-27T20:35:44.551Z,102144.17
2019-02-27T20:38:16.011Z,102149.66
2019-02-27T20:40:45.449Z,102144.61
2019-02-27T20:43:15.022Z,102141.63
2019-02-27T20:45:44.714Z,102142.55
2019-02-27T20:48:14.224Z,102141.13
2019-02-27T20:50:48.288Z,102143.81
2019-02-27T20:53:21.000Z,102142.92
2019-02-27T20:55:49.643Z,102140.25
2019-02-27T20:58:19.142Z,102137.53
2019-02-27T21:00:48.648Z,102138.52
2019-02-27T21:03:18.073Z,102136.02
2019-02-27T21:05:48.574Z,102133.28
2019-02-27T21:08:18.250Z,102130.59
2019-02-27T21:10:47.838Z,102131.33
2019-02-27T21:13:17.412Z,102132.81
2019-02-27T21:15:46.985Z,102129.19
2019-02-27T21:18:16.627Z,102134.22
2019-02-27T21:20:46.226Z,102132.80
2019-02-27T21:23:16.057Z,102128.63
2019-02-27T21:25:48.654Z,102125.98
2019-02-27T21:28:20.906Z,102121.26
2019-02-27T21:30:51.797Z,102120.09
2019-02-27T21:33:19.195Z,102119.16
2019-02-27T21:35:48.719Z,102114.67
2019-02-27T21:38:18.270Z,102126.22
2019-02-27T21:40:47.701Z,102124.22
2019-02-27T21:43:17.128Z,102125.27
2019-02-27T21:45:46.630Z,102124.77
2019-02-27T21:48:16.152Z,102121.33
2019-02-27T21:50:45.632Z,102125.83
2019-02-27T21:53:15.094Z,102121.89
2019-02-27T21:55:44.836Z,102124.56
2019-02-27T21:58:20.382Z,102125.06
2019-02-27T22:00:48.093Z,102129.78
2019-02-27T22:03:17.985Z,102128.84
2019-02-27T22:05:52.600Z,102122.10
2019-02-27T22:08:19.421Z,102126.55
2019-02-27T22:10:53.298Z,102117.18
2019-02-27T22:13:28.797Z,102112.27
2019-02-27T22:15:55.863Z,102114.95
2019-02-27T22:18:22.937Z,102107.56
2019-02-27T22:20:52.363Z,102107.44
2019-02-27T22:23:21.811Z,102091.56
2019-02-27T22:25:51.249Z,102094.84
2019-02-27T22:28:20.808Z,102091.47
2019-02-27T22:30:50.459Z,102093.81
2019-02-27T22:33:22.979Z,102092.75
2019-02-27T22:35:51.380Z,102082.61
2019-02-27T22:38:25.553Z,102086.62
2019-02-27T22:40:52.395Z,102074.70
2019-02-27T22:43:22.689Z,102077.20
2019-02-27T22:45:52.252Z,102078.88
2019-02-27T22:48:21.752Z,102076.81
2019-02-27T22:50:51.192Z,102076.52
2019-02-27T22:53:20.663Z,102075.63
2019-02-27T22:55:50.078Z,102077.00
2019-02-27T22:58:19.797Z,102079.41
2019-02-27T23:01:06.813Z,102088.14
2019-02-27T23:03:41.547Z,102079.97
2019-02-27T23:06:12.927Z,102081.03
2019-02-27T23:08:42.709Z,102074.70
2019-02-27T23:11:12.287Z,102069.22
2019-02-27T23:13:47.639Z,102069.22
2019-02-27T23:16:16.655Z,102061.89
2019-02-27T23:18:46.230Z,102060.73
2019-02-27T23:21:16.008Z,102067.18
2019-02-27T23:23:45.455Z,102070.66
2019-02-27T23:26:19.789Z,102061.52
2019-02-27T23:28:46.201Z,102056.78
2019-02-27T23:31:15.626Z,102050.64
2019-02-27T23:33:45.077Z,102048.54
2019-02-27T23:36:14.576Z,102048.64
2019-02-27T23:38:44.003Z,102042.80
2019-02-27T23:41:14.046Z,102038.60
2019-02-27T23:43:43.553Z,102037.30
2019-02-27T23:46:15.662Z,102035.04
2019-02-27T23:48:44.518Z,102037.61
2019-02-27T23:51:16.716Z,102027.81
2019-02-27T23:53:45.536Z,102024.77
2019-02-27T23:56:19.360Z,102022.34
2019-02-27T23:58:46.212Z,102016.37
